Data for 01/05/2006

Time Sea-Level Adjusted Pressure Absolute Pressure Temperature Relative Humidity Dew Point   
(mb) (inHg) (mb) (inHg) (C) (F) (%) (C) (F)
00:05 1032 30.47 861 25.43 -5 23.1 64 -10.9 12.5
00:10 1032 30.47 861 25.43 -4.6 23.7 62 -10.8 12.5
00:15 1032 30.47 861 25.43 -4.4 24 61 -10.8 12.6
00:20 1032 30.47 861 25.43 -4.5 23.9 63 -10.6 12.9
00:25 1032 30.47 861 25.43 -5 23 64 -10.7 12.7
00:30 1032 30.47 861 25.43 -5.1 22.9 64 -10.9 12.4
00:35 1032 30.47 861 25.43 -5.1 22.9 65 -10.7 12.7
00:40 1032 30.47 861 25.43 -5 23 64 -10.9 12.4
00:45 1032 30.47 861 25.43 -5.2 22.7 66 -10.6 12.9
00:50 1032 30.47 861 25.43 -5.3 22.5 65 -10.8 12.5
00:55 1032 30.47 861 25.43 -5.4 22.2 65 -10.9 12.3
01:00 1032 30.47 861 25.43 -5.6 21.9 66 -11 12.3
01:05 1032 30.47 861 25.43 -5.8 21.5 67 -11.1 12
01:10 1032 30.47 861 25.43 -5.5 22 64 -11.4 11.5
01:15 1032 30.47 861 25.43 -5.2 22.7 61 -11.7 11
01:20 1032 30.47 861 25.43 -5 22.9 60 -11.6 11.2
01:25 1032 30.47 861 25.43 -4.8 23.4 59 -11.7 11
01:30 1032 30.47 862 25.45 -5 23 61 -11.5 11.3
01:35 1032 30.47 862 25.45 -5.5 22.2 62 -11.6 11.2
01:40 1032 30.47 862 25.45 -5.4 22.2 62 -11.6 11.2
01:45 1032 30.47 862 25.45 -5.4 22.3 64 -11.1 11.9
01:50 1032 30.47 862 25.45 -5.6 21.9 65 -11.2 11.8
01:55 1032 30.47 862 25.45 -6 21.3 67 -11.2 11.8
02:00 1032 30.47 862 25.45 -6.5 20.4 68 -11.4 11.5
02:05 1032 30.47 862 25.45 -6 21.2 64 -11.7 10.9
02:10 1032 30.47 861 25.43 -5.7 21.8 64 -11.5 11.3
02:15 1032 30.47 861 25.43 -5.6 21.9 62 -11.8 10.7
02:20 1032 30.47 861 25.43 -5.4 22.2 62 -11.6 11.1
02:25 1032 30.47 861 25.43 -5.5 22.1 63 -11.5 11.3
02:30 1032 30.47 861 25.43 -5.5 22 62 -11.8 10.8
02:35 1032 30.47 862 25.45 -5.3 22.5 62 -11.6 11.2
02:40 1032 30.47 862 25.45 -5.7 21.7 64 -11.5 11.4
02:45 1032 30.47 862 25.45 -5.8 21.5 66 -11.2 11.9
02:50 1032 30.47 862 25.45 -5.8 21.6 67 -11 12.2
02:55 1032 30.47 862 25.45 -5.8 21.6 68 -10.8 12.5
03:00 1032 30.47 862 25.45 -5.7 21.7 65 -11.2 11.8
03:05 1032 30.47 862 25.45 -6.1 21.1 67 -11.3 11.7
03:10 1032 30.47 862 25.45 -6 21.1 65 -11.5 11.3
03:15 1032 30.47 862 25.45 -5.6 21.9 64 -11.5 11.4
03:20 1032 30.47 862 25.45 -5.4 22.3 62 -11.7 11
03:25 1032 30.47 861 25.43 -5.2 22.6 60 -11.7 10.9
03:30 1032 30.47 861 25.43 -4.9 23.2 58 -11.8 10.7
03:35 1032 30.47 861 25.43 -4.4 24.1 56 -12 10.4
03:40 1032 30.47 861 25.43 -3.9 24.9 54 -12 10.4
03:45 1032 30.47 862 25.45 -4.2 24.5 56 -11.7 10.9
03:50 1032 30.47 862 25.45 -4.7 23.6 59 -11.6 11.1
03:55 1033 30.5 862 25.45 -5.3 22.5 60 -11.8 10.8
04:00 1032 30.47 862 25.45 -5.8 21.6 63 -11.7 11
04:05 1032 30.47 862 25.45 -6.8 19.7 66 -12.1 10.2
04:10 1032 30.47 862 25.45 -6.8 19.8 65 -12.2 10
04:15 1032 30.47 861 25.43 -6.2 20.8 64 -12 10.3
04:20 1032 30.47 861 25.43 -5.8 21.5 64 -11.6 11
04:25 1032 30.47 861 25.43 -5.6 21.9 63 -11.6 11.1
04:30 1032 30.47 861 25.43 -5.2 22.6 61 -11.6 11.2
04:35 1032 30.47 861 25.43 -5.2 22.6 61 -11.6 11.1
04:40 1032 30.47 861 25.43 -4.9 23.2 60 -11.6 11.2
04:45 1032 30.47 861 25.43 -4.7 23.6 59 -11.6 11.2
04:50 1032 30.47 861 25.43 -5.3 22.5 61 -11.7 11
04:55 1032 30.47 861 25.43 -5.6 22 60 -12.2 10.1
05:00 1032 30.47 861 25.43 -5.2 22.6 59 -12.1 10.2
05:05 1032 30.47 861 25.43 -5.5 22.1 58 -12.6 9.4
05:10 1032 30.47 861 25.43 -4.8 23.4 55 -12.6 9.4
05:15 1032 30.47 861 25.43 -4.5 24 57 -11.8 10.7
05:20 1032 30.47 861 25.43 -4.6 23.7 58 -11.7 11
05:25 1032 30.47 861 25.43 -4.8 23.3 59 -11.6 11.2
05:30 1032 30.47 861 25.43 -5.1 22.8 60 -11.7 10.9
05:35 1032 30.47 861 25.43 -4.9 23.1 59 -11.7 11
05:40 1032 30.47 861 25.43 -4.8 23.4 59 -11.6 11
05:45 1032 30.47 861 25.43 -4.3 24.3 55 -11.9 10.5
05:50 1032 30.47 861 25.43 -3.7 25.3 53 -11.9 10.6
05:55 1032 30.47 861 25.43 -3.8 25.1 57 -11.2 11.9
06:00 1032 30.47 861 25.43 -4.4 24 56 -12 10.4
06:05 1032 30.47 861 25.43 -3.7 25.4 54 -11.6 11.1
06:10 1032 30.47 861 25.43 -3.8 25.1 58 -10.9 12.3
06:15 1032 30.47 861 25.43 -4.4 24 58 -11.4 11.4
06:20 1032 30.47 861 25.43 -4.2 24.5 55 -11.9 10.5
06:25 1032 30.47 861 25.43 -3.4 25.8 52 -11.9 10.7
06:30 1032 30.47 861 25.43 -3.3 26.1 55 -11 12.1
06:35 1032 30.47 861 25.43 -3.9 25 58 -11 12.2
06:40 1031 30.45 861 25.43 -4.2 24.5 58 -11.2 11.9
06:45 1031 30.45 860 25.4 -4.3 24.2 60 -11 12.3
06:50 1031 30.45 860 25.4 -4.7 23.6 62 -11 12.2
06:55 1031 30.45 860 25.4 -4.8 23.3 61 -11.3 11.6
07:00 1031 30.45 860 25.4 -4.3 24.3 60 -10.9 12.3
07:05 1031 30.45 860 25.4 -4.2 24.4 61 -10.8 12.6
07:10 1031 30.45 860 25.4 -3.7 25.3 57 -11 12.2
07:15 1031 30.45 860 25.4 -3.1 26.5 55 -10.9 12.3
07:20 1031 30.45 860 25.4 -3.1 26.4 54 -11.2 11.9
07:25 1031 30.45 860 25.4 -2.9 26.7 54 -11 12.2
07:30 1031 30.45 861 25.43 -2.8 26.9 55 -10.7 12.7
07:35 1031 30.45 861 25.43 -3 26.7 56 -10.7 12.8
07:40 1031 30.45 861 25.43 -2.8 27 55 -10.7 12.8
07:45 1031 30.45 860 25.4 -2.8 27.1 57 -10.2 13.6
07:50 1031 30.45 860 25.4 -2.6 27.4 55 -10.4 13.3
07:55 1031 30.45 861 25.43 -2.6 27.4 53 -11 12.2
08:00 1031 30.45 861 25.43 -2.5 27.6 53 -10.8 12.6
08:05 1031 30.45 861 25.43 -2.2 28 57 -9.6 14.6
08:10 1031 30.45 861 25.43 -2.6 27.3 62 -9 15.7
08:15 1032 30.47 861 25.43 -3.2 26.3 63 -9.3 15.3
08:20 1032 30.47 861 25.43 -3.4 25.9 64 -9.3 15.3
08:25 1032 30.47 861 25.43 -3.3 26.1 62 -9.6 14.7
08:30 1032 30.47 861 25.43 -2.6 27.3 56 -10.1 13.8
08:35 1032 30.47 861 25.43 -2.3 27.9 59 -9.3 15.3
08:40 1032 30.47 861 25.43 -2.6 27.4 61 -9.1 15.6
08:45 1032 30.47 861 25.43 -2.8 26.9 63 -8.9 16
08:50 1032 30.47 861 25.43 -3 26.6 62 -9.3 15.3
08:55 1032 30.47 861 25.43 -2.9 26.7 61 -9.4 15
09:00 1032 30.47 861 25.43 -2.7 27.1 61 -9.2 15.4
09:05 1032 30.47 861 25.43 -2.6 27.3 54 -10.8 12.6
09:10 1032 30.47 861 25.43 -2.4 27.7 54 -10.6 13
09:15 1032 30.47 861 25.43 -2.3 27.8 56 -9.9 14.3
09:20 1032 30.47 861 25.43 -2.6 27.4 59 -9.5 14.8
09:25 1032 30.47 861 25.43 -2.9 26.9 62 -9.2 15.5
09:30 1032 30.47 861 25.43 -2.8 26.9 60 -9.5 15
09:35 1032 30.47 861 25.43 -2.7 27.2 57 -10 14
09:40 1032 30.47 861 25.43 -2.6 27.3 59 -9.5 14.9
09:45 1032 30.47 861 25.43 -2.5 27.5 62 -8.9 16
09:50 1032 30.47 861 25.43 -2.6 27.4 62 -8.8 16.1
09:55 1031 30.45 861 25.43 -2.5 27.5 63 -8.6 16.6
10:00 1031 30.45 861 25.43 -2.3 27.8 61 -8.8 16.1
10:05 1031 30.45 861 25.43 -2 28.5 56 -9.5 14.9
10:10 1031 30.45 861 25.43 -1.4 29.4 56 -9.1 15.6
10:15 1031 30.45 860 25.4 -0.9 30.3 55 -8.8 16.1
10:20 1031 30.45 860 25.4 -1.2 29.8 58 -8.4 16.8
10:25 1031 30.45 860 25.4 -1.4 29.6 59 -8.5 16.8
10:30 1031 30.45 860 25.4 -1.3 29.6 58 -8.5 16.7
10:35 1031 30.45 860 25.4 -1.1 30 56 -8.7 16.3
10:40 1031 30.45 860 25.4 -0.9 30.4 56 -8.6 16.6
10:45 1031 30.45 860 25.4 -0.7 30.7 54 -8.9 15.9
10:50 1031 30.45 860 25.4 -0.4 31.3 52 -9.1 15.7
10:55 1031 30.45 860 25.4 -0.2 31.7 53 -8.7 16.3
11:00 1031 30.45 860 25.4 0.1 32.1 51 -8.9 16
11:05 1031 30.45 860 25.4 0.2 32.3 52 -8.5 16.8
11:10 1031 30.45 860 25.4 0.3 32.5 51 -8.8 16.2
11:15 1030 30.42 860 25.4 0 32 53 -8.5 16.6
11:20 1030 30.42 860 25.4 -0.1 31.8 53 -8.5 16.7
11:25 1030 30.42 860 25.4 0.1 32.2 52 -8.7 16.4
11:30 1030 30.42 860 25.4 0.5 32.8 53 -8.1 17.5
11:35 1030 30.42 859 25.37 0.9 33.6 51 -8.2 17.3
11:40 1030 30.42 859 25.37 1.2 34.1 50 -8.2 17.3
11:45 1030 30.42 859 25.37 1.4 34.5 51 -7.6 18.4
11:50 1030 30.42 859 25.37 1.6 34.8 51 -7.6 18.4
11:55 1030 30.42 859 25.37 1.6 34.8 50 -7.7 18.1
12:00 1030 30.42 859 25.37 2 35.6 47 -8.2 17.3
12:05 1030 30.42 859 25.37 2.5 36.5 45 -8.2 17.3
12:10 1030 30.42 859 25.37 3.1 37.6 42 -8.5 16.6
12:15 1030 30.42 859 25.37 3.4 38.2 39 -9.2 15.5
12:20 1030 30.42 859 25.37 3.7 38.7 39 -8.9 15.9
12:25 1030 30.42 859 25.37 4 39.2 35 -10.3 13.5
12:30 1029 30.39 859 25.37 4 39.2 41 -8.1 17.4
12:35 1029 30.39 859 25.37 3.7 38.7 43 -7.7 18.2
12:40 1029 30.39 858 25.34 2.7 36.9 46 -7.8 18
12:45 1029 30.39 858 25.34 2.8 37.1 43 -8.5 16.6
12:50 1029 30.39 858 25.34 3.7 38.6 43 -7.7 18.2
12:55 1029 30.39 858 25.34 3.3 38 45 -7.4 18.6
13:00 1029 30.39 858 25.34 2.5 36.5 47 -7.8 18
13:05 1029 30.39 858 25.34 2.6 36.7 47 -7.6 18.3
13:10 1029 30.39 858 25.34 3.2 37.7 43 -8.3 17.1
13:15 1029 30.39 858 25.34 3.1 37.6 45 -7.7 18.1
13:20 1029 30.39 858 25.34 3.6 38.4 40 -8.9 15.9
13:25 1029 30.39 858 25.34 4.5 40.2 36 -9.4 15.2
13:30 1029 30.39 858 25.34 4.8 40.7 37 -8.7 16.4
13:35 1029 30.39 858 25.34 4.8 40.6 39 -8.1 17.4
13:40 1028 30.36 858 25.34 5 40.9 38 -8.1 17.5
13:45 1028 30.36 858 25.34 4.8 40.7 39 -7.9 17.8
13:50 1028 30.36 858 25.34 4.8 40.6 39 -8.1 17.5
13:55 1028 30.36 858 25.34 5 41 38 -8.2 17.3
14:00 1028 30.36 858 25.34 5.1 41.1 39 -7.8 17.9
14:05 1028 30.36 857 25.31 4.8 40.7 41 -7.3 18.9
14:10 1028 30.36 858 25.34 4.4 40 43 -7.1 19.1
14:15 1028 30.36 858 25.34 4.3 39.7 43 -7.2 19
14:20 1028 30.36 858 25.34 4.3 39.8 41 -7.7 18.2
14:25 1028 30.36 858 25.34 4 39.2 43 -7.3 18.8
14:30 1028 30.36 858 25.34 4.1 39.5 39 -8.7 16.4
14:35 1028 30.36 857 25.31 4.5 40.1 36 -9.2 15.4
14:40 1028 30.36 857 25.31 3.8 38.8 38 -9.4 15.1
14:45 1028 30.36 857 25.31 2.7 36.9 41 -9.4 15.1
14:50 1028 30.36 857 25.31 2.1 35.8 43 -9.3 15.2
14:55 1028 30.36 857 25.31 2.3 36.2 47 -7.7 18.1
15:00 1028 30.36 857 25.31 2.8 37 45 -8 17.5
15:05 1028 30.36 857 25.31 2.8 37.1 45 -8 17.6
15:10 1028 30.36 857 25.31 2.9 37.1 48 -7 19.4
15:15 1028 30.36 857 25.31 2.7 36.8 49 -7.1 19.3
15:20 1028 30.36 857 25.31 2.8 37 48 -7.2 19
15:25 1028 30.36 857 25.31 2.6 36.7 51 -6.6 20.1
15:30 1028 30.36 857 25.31 2.2 36 52 -6.5 20.2
15:35 1028 30.36 857 25.31 2.1 35.8 52 -6.7 19.9
15:40 1028 30.36 857 25.31 2.4 36.3 48 -7.4 18.6
15:45 1028 30.36 857 25.31 1.3 34.4 52 -7.6 18.4
15:50 1028 30.36 857 25.31 0.8 33.4 54 -7.5 18.4
15:55 1028 30.36 857 25.31 0.3 32.6 55 -7.6 18.3
16:00 1028 30.36 857 25.31 0.4 32.8 54 -7.7 18.1
16:05 1028 30.36 857 25.31 0.2 32.3 54 -8 17.6
16:10 1028 30.36 857 25.31 0.6 33 54 -7.7 18.1
16:15 1027 30.33 857 25.31 0.6 33 55 -7.5 18.6
16:20 1027 30.33 857 25.31 0.9 33.6 55 -7.1 19.1
16:25 1027 30.33 857 25.31 0.7 33.2 55 -7.4 18.7
16:30 1027 30.33 857 25.31 0.6 33.1 55 -7.4 18.6
16:35 1027 30.33 856 25.28 0.6 33.1 55 -7.5 18.5
16:40 1027 30.33 856 25.28 0.5 32.9 55 -7.5 18.4
16:45 1027 30.33 856 25.28 0.3 32.5 54 -7.9 17.8
16:50 1027 30.33 856 25.28 0.2 32.4 56 -7.6 18.3
16:55 1027 30.33 856 25.28 0 32 54 -8.3 17.1
17:00 1027 30.33 856 25.28 0.5 32.9 53 -8.1 17.4
17:05 1027 30.33 856 25.28 0.3 32.5 55 -7.6 18.3
17:10 1027 30.33 856 25.28 -0 32 55 -7.9 17.7
17:15 1027 30.33 856 25.28 -0 31.9 54 -8.2 17.3
17:20 1027 30.33 856 25.28 0.2 32.3 53 -8.3 17.1
17:25 1027 30.33 856 25.28 0.1 32.2 55 -7.9 17.8
17:30 1027 30.33 856 25.28 -0.3 31.5 57 -7.7 18.1
17:35 1027 30.33 856 25.28 -0.1 31.8 57 -7.8 18
17:40 1027 30.33 856 25.28 0.1 32.2 60 -6.8 19.7
17:45 1027 30.33 856 25.28 0.8 33.4 57 -6.9 19.7
17:50 1027 30.33 856 25.28 0.7 33.3 58 -6.6 20.2
17:55 1027 30.33 856 25.28 0.7 33.3 56 -7.1 19.3
18:00 1027 30.33 856 25.28 0.5 32.9 59 -6.7 20
18:05 1027 30.33 856 25.28 0.6 33 56 -7.3 18.9
18:10 1027 30.33 856 25.28 0.5 33 56 -7.2 19
18:15 1027 30.33 856 25.28 0.9 33.6 56 -6.9 19.5
18:20 1026 30.3 856 25.28 1 33.9 53 -7.4 18.7
18:25 1026 30.3 856 25.28 1.1 34 54 -7.3 18.8
18:30 1026 30.3 856 25.28 0.7 33.2 58 -6.8 19.8
18:35 1026 30.3 856 25.28 0.7 33.2 58 -6.7 19.9
18:40 1026 30.3 856 25.28 0.8 33.5 57 -6.7 19.9
18:45 1026 30.3 855 25.25 1 33.7 57 -6.6 20.1
18:50 1026 30.3 856 25.28 1 33.8 58 -6.4 20.5
18:55 1026 30.3 855 25.25 0.9 33.5 59 -6.2 20.8
19:00 1026 30.3 855 25.25 0.6 33 60 -6.3 20.7
19:05 1026 30.3 855 25.25 0.5 32.9 61 -6.3 20.7
19:10 1026 30.3 856 25.28 0.7 33.2 61 -6 21.3
19:15 1026 30.3 855 25.25 0.5 32.8 60 -6.5 20.4
19:20 1026 30.3 855 25.25 0.8 33.4 58 -6.5 20.2
19:25 1026 30.3 855 25.25 0.8 33.5 60 -6 21.1
19:30 1026 30.3 855 25.25 0.1 32.2 65 -5.7 21.7
19:35 1026 30.3 855 25.25 -0.3 31.4 66 -5.9 21.3
19:40 1026 30.3 855 25.25 -0.7 30.7 67 -6.2 20.8
19:45 1026 30.3 855 25.25 -1 30.1 69 -6 21.1
19:50 1026 30.3 855 25.25 -0.9 30.3 66 -6.6 20.1
19:55 1026 30.3 855 25.25 -0.1 31.8 61 -6.8 19.7
20:00 1026 30.3 855 25.25 0.1 32.2 61 -6.6 20.1
20:05 1026 30.3 855 25.25 0.2 32.3 60 -6.6 20.1
20:10 1026 30.3 855 25.25 0.3 32.6 60 -6.6 20.1
20:15 1026 30.3 855 25.25 0.6 33 59 -6.6 20.1
20:20 1026 30.3 855 25.25 0.6 33 62 -6 21.3
20:25 1026 30.3 855 25.25 0.2 32.3 65 -5.7 21.8
20:30 1026 30.3 855 25.25 -1.1 30 74 -5.2 22.7
20:35 1026 30.3 855 25.25 -1.5 29.2 73 -5.8 21.5
20:40 1026 30.3 855 25.25 -1.8 28.8 69 -6.6 20
20:45 1026 30.3 855 25.25 -0.7 30.7 66 -6.4 20.6
20:50 1026 30.3 855 25.25 -0.8 30.5 69 -5.7 21.7
20:55 1026 30.3 855 25.25 -0.7 30.7 69 -5.7 21.7
21:00 1026 30.3 855 25.25 -0.9 30.5 69 -5.9 21.4
21:05 1026 30.3 855 25.25 -1 30.3 69 -5.9 21.4
21:10 1026 30.3 855 25.25 -1.4 29.5 71 -5.9 21.4
21:15 1026 30.3 855 25.25 -1.6 29.1 73 -5.8 21.6
21:20 1026 30.3 855 25.25 -1.7 28.9 72 -6.1 21
21:25 1026 30.3 855 25.25 -2.1 28.2 74 -6.2 20.8
21:30 1026 30.3 855 25.25 -1.7 28.9 75 -5.5 22.1
21:35 1026 30.3 855 25.25 -0.8 30.6 73 -5.1 22.9
21:40 1026 30.3 855 25.25 -0.6 30.9 67 -6.1 21
21:45 1026 30.3 855 25.25 -1.1 30 66 -6.6 20.1
21:50 1026 30.3 855 25.25 -1.2 29.8 66 -6.8 19.7
21:55 1026 30.3 855 25.25 -1 30.3 65 -6.8 19.8
22:00 1026 30.3 855 25.25 -0.8 30.5 63 -7 19.4
22:05 1025 30.27 855 25.25 -0.5 31.1 62 -6.9 19.6
22:10 1025 30.27 855 25.25 -0.7 30.7 64 -6.7 19.9
22:15 1025 30.27 855 25.25 -0.5 31.1 63 -6.7 19.9
22:20 1025 30.27 855 25.25 -0.4 31.3 66 -6 21.2
22:25 1025 30.27 855 25.25 -0.2 31.6 63 -6.5 20.4
22:30 1025 30.27 855 25.25 -0.1 31.8 63 -6.3 20.7
22:35 1025 30.27 855 25.25 -0.4 31.3 66 -5.9 21.3
22:40 1025 30.27 855 25.25 -0.8 30.6 69 -5.7 21.7
22:45 1025 30.27 855 25.25 -1 30.2 71 -5.6 21.9
22:50 1025 30.27 855 25.25 -1.3 29.6 72 -5.7 21.8
22:55 1025 30.27 855 25.25 -0.8 30.6 68 -5.9 21.4
23:00 1025 30.27 855 25.25 -1 30.1 72 -5.6 22
23:05 1025 30.27 855 25.25 -0.8 30.6 64 -6.7 20
23:10 1026 30.3 855 25.25 -0.6 30.9 67 -5.9 21.4
23:15 1025 30.27 855 25.25 -0.3 31.5 66 -5.9 21.3
23:20 1025 30.27 855 25.25 0.1 32.1 62 -6.5 20.4
23:25 1025 30.27 855 25.25 0.3 32.6 59 -6.7 19.9
23:30 1025 30.27 854 25.22 0.4 32.8 60 -6.4 20.5
23:35 1025 30.27 854 25.22 0.2 32.3 60 -6.6 20.1
23:40 1025 30.27 854 25.22 0.4 32.7 59 -6.8 19.8
23:45 1025 30.27 854 25.22 0.5 32.9 59 -6.7 20
23:50 1025 30.27 854 25.22 0.1 32.1 61 -6.5 20.3
23:55 1025 30.27 854 25.22 -0.6 31 64 -6.5 20.3
24:00 1025 30.27 855 25.25 -0.7 30.7 63 -7 19.4